| time (UTC) | temp F | wind direction | speed MPH | gust MPH | rain 1hr in | rain 24hr in | rain mn in | humidity % | barometer mb |
| 20260502223421 | 64 | 55 | 0.0 | 4.0 | 0.00 | 0.00 | 0.00 | 35 | 1010.9 |
| 20260502222919 | 64 | 324 | 1.0 | 2.0 | 0.00 | 0.00 | 0.00 | 34 | 1011.3 |
| 20260502222416 | 64 | 174 | 2.0 | 2.0 | 0.00 | 0.00 | 0.00 | 33 | 1011.1 |
| 20260502221911 | 64 | 136 | 2.0 | 3.0 | 0.00 | 0.00 | 0.00 | 34 | 1011.2 |
| 20260502221408 | 65 | 296 | 1.0 | 3.0 | 0.00 | 0.00 | 0.00 | 35 | 1011.3 |
| 20260502220905 | 65 | 315 | 0.0 | 2.0 | 0.00 | 0.00 | 0.00 | 34 | 1011.1 |
| 20260502220401 | 65 | 282 | 2.0 | 2.0 | 0.00 | 0.00 | 0.00 | 34 | 1011.3 |
| 20260502215857 | 65 | 323 | 2.0 | 3.0 | 0.00 | 0.00 | 0.00 | 32 | 1011.5 |
| 20260502215355 | 66 | 195 | 2.0 | 3.0 | 0.00 | 0.00 | 0.00 | 35 | 1011.5 |
| 20260502214852 | 66 | 238 | 0.0 | 3.0 | 0.00 | 0.00 | 0.00 | 33 | 1011.5 |
| 20260502214348 | 66 | 330 | 1.0 | 4.0 | 0.00 | 0.00 | 0.00 | 33 | 1011.6 |
| 20260502213845 | 66 | 329 | 0.0 | 5.0 | 0.00 | 0.00 | 0.00 | 32 | 1011.4 |
| 20260502213343 | 66 | 336 | 3.0 | 3.0 | 0.00 | 0.00 | 0.00 | 35 | 1011.8 |
| 20260502212842 | 67 | 280 | 3.0 | 4.0 | 0.00 | 0.00 | 0.00 | 32 | 1011.8 |
| 20260502212340 | 65 | 175 | 1.0 | 9.0 | 0.00 | 0.00 | 0.00 | 35 | 1011.8 |
| 20260502211836 | 66 | 224 | 9.0 | 9.0 | 0.00 | 0.00 | 0.00 | 31 | 1011.9 |
| 20260502211332 | 68 | 195 | 2.0 | 2.0 | 0.00 | 0.00 | 0.00 | 33 | 1012.0 |
| 20260502210830 | 68 | 174 | 5.0 | 5.0 | 0.00 | 0.00 | 0.00 | 33 | 1012.2 |
| 20260502210327 | 66 | 243 | 2.0 | 4.0 | 0.00 | 0.00 | 0.00 | 32 | 1012.1 |
| 20260502205824 | 67 | 218 | 4.0 | 14.0 | 0.00 | 0.00 | 0.00 | 32 | 1012.5 |
| 20260502205320 | 65 | 161 | 2.0 | 5.0 | 0.00 | 0.00 | 0.00 | 34 | 1012.4 |
| 20260502204817 | 65 | 197 | 3.0 | 3.0 | 0.00 | 0.00 | 0.00 | 33 | 1012.5 |
| 20260502204314 | 66 | 269 | 1.0 | 3.0 | 0.00 | 0.00 | 0.00 | 34 | 1012.7 |
| 20260502203812 | 68 | 326 | 4.0 | 4.0 | 0.00 | 0.00 | 0.00 | 29 | 1012.8 |
| 20260502203309 | 67 | 203 | 3.0 | 5.0 | 0.00 | 0.00 | 0.00 | 33 | 1012.9 |
| 20260502202809 | 66 | 186 | 4.0 | 7.0 | 0.00 | 0.00 | 0.00 | 33 | 1013.1 |
| 20260502202307 | 67 | 201 | 2.0 | 8.0 | 0.00 | 0.00 | 0.00 | 33 | 1013.0 |
| 20260502201805 | 68 | 228 | 2.0 | 3.0 | 0.00 | 0.00 | 0.00 | 32 | 1013.1 |
| 20260502201301 | 67 | 108 | 3.0 | 5.0 | 0.00 | 0.00 | 0.00 | 37 | 1013.3 |
| 20260502200757 | 65 | 195 | 3.0 | 7.0 | 0.00 | 0.00 | 0.00 | 35 | 1013.5 |
| 20260502200253 | 64 | 142 | 4.0 | 9.0 | 0.00 | 0.00 | 0.00 | 33 | 1013.4 |
| 20260502195752 | 66 | 249 | 3.0 | 4.0 | 0.00 | 0.00 | 0.00 | 35 | 1013.4 |
| 20260502195248 | 65 | 162 | 2.0 | 10.0 | 0.00 | 0.00 | 0.00 | 34 | 1013.5 |
| 20260502194744 | 65 | 269 | 0.0 | 4.0 | 0.00 | 0.00 | 0.00 | 32 | 1014.0 |
| 20260502194242 | 65 | 93 | 2.0 | 3.0 | 0.00 | 0.00 | 0.00 | 34 | 1013.7 |
| 20260502193737 | 65 | 231 | 4.0 | 6.0 | 0.00 | 0.00 | 0.00 | 35 | 1014.0 |
| 20260502193235 | 65 | 96 | 3.0 | 4.0 | 0.00 | 0.00 | 0.00 | 36 | 1013.9 |
| 20260502192734 | 64 | 93 | 2.0 | 6.0 | 0.00 | 0.00 | 0.00 | 35 | 1014.1 |
| 20260502192232 | 64 | 117 | 3.0 | 6.0 | 0.00 | 0.00 | 0.00 | 32 | 1014.3 |
| 20260502191728 | 63 | 204 | 1.0 | 4.0 | 0.00 | 0.00 | 0.00 | 35 | 1014.6 |
| 20260502191226 | 62 | 128 | 2.0 | 11.0 | 0.00 | 0.00 | 0.00 | 35 | 1014.4 |
| 20260502190723 | 62 | 150 | 4.0 | 8.0 | 0.00 | 0.00 | 0.00 | 35 | 1014.8 |
| 20260502190221 | 62 | 118 | 4.0 | 5.0 | 0.00 | 0.00 | 0.00 | 35 | 1014.9 |
| 20260502185720 | 64 | 206 | 3.0 | 6.0 | 0.00 | 0.00 | 0.00 | 34 | 1014.9 |
| 20260502185217 | 63 | 210 | 6.0 | 6.0 | 0.00 | 0.00 | 0.00 | 33 | 1014.9 |
| 20260502184713 | 61 | 154 | 2.0 | 8.0 | 0.00 | 0.00 | 0.00 | 34 | 1015.0 |
| 20260502184209 | 62 | 230 | 5.0 | 9.0 | 0.00 | 0.00 | 0.00 | 34 | 1015.0 |
| 20260502183706 | 62 | 225 | 5.0 | 6.0 | 0.00 | 0.00 | 0.00 | 36 | 1015.2 |
| 20260502183202 | 61 | 149 | 5.0 | 8.0 | 0.00 | 0.00 | 0.00 | 38 | 1015.3 |
| 20260502182657 | 61 | 232 | 3.0 | 4.0 | 0.00 | 0.00 | 0.00 | 36 | 1015.4 |
| 20260502182153 | 60 | 194 | 2.0 | 11.0 | 0.00 | 0.00 | 0.00 | 37 | 1015.4 |
| 20260502181651 | 61 | 152 | 4.0 | 7.0 | 0.00 | 0.00 | 0.00 | 36 | 1015.5 |
| 20260502181150 | 61 | 173 | 6.0 | 8.0 | 0.00 | 0.00 | 0.00 | 33 | 1015.6 |
| 20260502180646 | 61 | 218 | 4.0 | 4.0 | 0.00 | 0.00 | 0.00 | 34 | 1015.7 |
| 20260502180143 | 60 | 230 | 2.0 | 4.0 | 0.00 | 0.00 | 0.00 | 33 | 1015.6 |
| 20260502170108 | 59 | 136 | 2.0 | 6.0 | 0.00 | 0.00 | 0.00 | 38 | 1016.7 |
| 20260502164054 | 59 | 321 | 2.0 | 2.0 | 0.00 | 0.00 | 0.00 | 35 | 1016.8 |
| 20260502163550 | 58 | 202 | 3.0 | 7.0 | 0.00 | 0.00 | 0.00 | 37 | 1016.9 |
| 20260502163047 | 59 | 312 | 3.0 | 4.0 | 0.00 | 0.00 | 0.00 | 35 | 1016.8 |
| 20260502162544 | 58 | 178 | 7.0 | 10.0 | 0.00 | 0.00 | 0.00 | 35 | 1017.0 |
| 20260502162041 | 59 | 221 | 4.0 | 8.0 | 0.00 | 0.00 | 0.00 | 37 | 1017.1 |
| 20260502161538 | 58 | 138 | 2.0 | 4.0 | 0.00 | 0.00 | 0.00 | 40 | 1017.1 |
| 20260502161036 | 59 | 211 | 3.0 | 5.0 | 0.00 | 0.00 | 0.00 | 36 | 1017.1 |
| 20260502160533 | 58 | 31 | 3.0 | 3.0 | 0.00 | 0.00 | 0.00 | 37 | 1017.2 |
| 20260502151941 | 55 | 291 | 2.0 | 5.0 | 0.00 | 0.00 | 0.00 | 38 | 1017.7 |
| 20260502151437 | 56 | 207 | 1.0 | 3.0 | 0.00 | 0.00 | 0.00 | 44 | 1017.6 |
| 20260502150935 | 56 | 111 | 2.0 | 2.0 | 0.00 | 0.00 | 0.00 | 41 | 1017.7 |
| 20260502150432 | 54 | 17 | 2.0 | 3.0 | 0.00 | 0.00 | 0.00 | 40 | 1017.7 |
| 20260502130317 | 47 | 4 | 0.0 | 1.0 | 0.00 | 0.00 | 0.00 | 55 | 1018.4 |
| 20260502123803 | 44 | 33 | 1.0 | 3.0 | 0.00 | 0.00 | 0.00 | 62 | 1018.5 |
| 20260502123300 | 43 | 344 | 1.0 | 3.0 | 0.00 | 0.00 | 0.00 | 64 | 1018.2 |
| 20260502122756 | 43 | 92 | 1.0 | 2.0 | 0.00 | 0.00 | 0.00 | 67 | 1018.4 |
| 20260502122252 | 41 | 95 | 0.0 | 2.0 | 0.00 | 0.00 | 0.00 | 69 | 1018.2 |
| 20260502121751 | 39 | 79 | 0.0 | 2.0 | 0.00 | 0.00 | 0.00 | 75 | 1018.1 |
| 20260502121248 | 37 | 80 | 2.0 | 2.0 | 0.00 | 0.00 | 0.00 | 76 | 1018.1 |
| 20260502120745 | 36 | 79 | 2.0 | 3.0 | 0.00 | 0.00 | 0.00 | 80 | 1018.4 |
| 20260502120242 | 36 | 70 | 1.0 | 3.0 | 0.00 | 0.00 | 0.00 | 81 | 1018.4 |
| 20260502115739 | 35 | 60 | 1.0 | 3.0 | 0.00 | 0.00 | 0.00 | 82 | 1018.2 |
| 20260502115236 | 35 | 67 | 2.0 | 4.0 | 0.00 | 0.00 | 0.00 | 83 | 1018.1 |
| 20260502114732 | 34 | 71 | 1.0 | 2.0 | 0.00 | 0.00 | 0.00 | 83 | 1018.1 |
| 20260502114229 | 33 | 61 | 2.0 | 3.0 | 0.00 | 0.00 | 0.00 | 84 | 1018.1 |
| 20260502113726 | 33 | 51 | 1.0 | 2.0 | 0.00 | 0.00 | 0.00 | 85 | 1018.6 |
| 20260502113224 | 33 | 62 | 2.0 | 2.0 | 0.00 | 0.00 | 0.00 | 84 | 1017.9 |
| 20260502112722 | 33 | 56 | 2.0 | 2.0 | 0.00 | 0.00 | 0.00 | 84 | 1018.2 |
| 20260502112219 | 33 | 38 | 2.0 | 3.0 | 0.00 | 0.00 | 0.00 | 83 | 1018.2 |
| 20260502111716 | 33 | 64 | 3.0 | 4.0 | 0.00 | 0.00 | 0.00 | 84 | 1018.4 |
| 20260502111214 | 33 | 56 | 1.0 | 3.0 | 0.00 | 0.00 | 0.00 | 85 | 1018.0 |
| 20260502110711 | 32 | 45 | 2.0 | 3.0 | 0.00 | 0.00 | 0.00 | 85 | 1018.0 |
| 20260502110209 | 32 | 69 | 2.0 | 3.0 | 0.00 | 0.00 | 0.00 | 84 | 1018.1 |
| 20260502105707 | 33 | 69 | 2.0 | 3.0 | 0.00 | 0.00 | 0.00 | 84 | 1018.1 |
| 20260502105203 | 33 | 82 | 2.0 | 3.0 | 0.00 | 0.00 | 0.00 | 83 | 1017.9 |
| 20260502104700 | 33 | 66 | 2.0 | 2.0 | 0.00 | 0.00 | 0.00 | 83 | 1017.9 |
| 20260502104158 | 33 | 76 | 3.0 | 3.0 | 0.00 | 0.00 | 0.00 | 82 | 1017.9 |
| 20260502103655 | 33 | 130 | 0.0 | 2.0 | 0.00 | 0.00 | 0.00 | 83 | 1018.0 |
| 20260502103153 | 33 | 55 | 3.0 | 4.0 | 0.00 | 0.00 | 0.00 | 82 | 1018.1 |
| 20260502102649 | 33 | 94 | 0.0 | 2.0 | 0.00 | 0.00 | 0.00 | 80 | 1018.0 |
| 20260502102146 | 34 | 43 | 1.0 | 4.0 | 0.00 | 0.00 | 0.00 | 81 | 1018.2 |
| 20260502101644 | 34 | 52 | 2.0 | 3.0 | 0.00 | 0.00 | 0.00 | 78 | 1017.9 |
| 20260502101142 | 34 | 76 | 2.0 | 4.0 | 0.00 | 0.00 | 0.00 | 78 | 1018.2 |
| 20260502100640 | 35 | 50 | 2.0 | 3.0 | 0.00 | 0.00 | 0.00 | 76 | 1018.1 |
| 20260502100138 | 35 | 38 | 1.0 | 3.0 | 0.00 | 0.00 | 0.00 | 75 | 1018.1 |
| 20260502091112 | 36 | 62 | 1.0 | 2.0 | 0.00 | 0.00 | 0.00 | 76 | 1018.0 |
| 20260502090609 | 36 | 63 | 1.0 | 2.0 | 0.00 | 0.00 | 0.00 | 74 | 1017.7 |
| 20260502090107 | 35 | 58 | 2.0 | 2.0 | 0.00 | 0.00 | 0.00 | 76 | 1017.7 |
| 20260502071504 | 37 | 42 | 1.0 | 2.0 | 0.00 | 0.00 | 0.00 | 71 | 1018.1 |
| 20260502071002 | 37 | 62 | 1.0 | 2.0 | 0.00 | 0.00 | 0.00 | 72 | 1018.2 |
| 20260502070500 | 36 | 58 | 1.0 | 2.0 | 0.00 | 0.00 | 0.00 | 72 | 1018.1 |
| 20260502065958 | 36 | 44 | 2.0 | 2.0 | 0.00 | 0.00 | 0.00 | 74 | 1018.1 |
| 20260502065456 | 36 | 57 | 2.0 | 2.0 | 0.00 | 0.00 | 0.00 | 74 | 1018.1 |
| 20260502064954 | 36 | 47 | 0.0 | 2.0 | 0.00 | 0.00 | 0.00 | 74 | 1018.0 |
| 20260502064451 | 36 | 63 | 1.0 | 2.0 | 0.00 | 0.00 | 0.00 | 72 | 1018.1 |
| 20260502063948 | 36 | 52 | 1.0 | 2.0 | 0.00 | 0.00 | 0.00 | 73 | 1018.1 |
| 20260502063446 | 36 | 47 | 1.0 | 2.0 | 0.00 | 0.00 | 0.00 | 74 | 1018.4 |
| 20260502062943 | 36 | 64 | 1.0 | 2.0 | 0.00 | 0.00 | 0.00 | 73 | 1018.5 |
| 20260502062440 | 36 | 55 | 1.0 | 2.0 | 0.00 | 0.00 | 0.00 | 74 | 1018.5 |
| 20260502061939 | 36 | 58 | 1.0 | 2.0 | 0.00 | 0.00 | 0.00 | 75 | 1018.2 |
| 20260502061437 | 36 | 46 | 1.0 | 2.0 | 0.00 | 0.00 | 0.00 | 75 | 1018.1 |
| 20260502060932 | 37 | 63 | 1.0 | 2.0 | 0.00 | 0.00 | 0.00 | 73 | 1018.5 |
| 20260502060428 | 37 | 54 | 1.0 | 2.0 | 0.00 | 0.00 | 0.00 | 71 | 1018.4 |
| 20260502055925 | 37 | 67 | 1.0 | 2.0 | 0.00 | 0.00 | 0.00 | 71 | 1018.4 |
| 20260502055423 | 37 | 48 | 1.0 | 2.0 | 0.00 | 0.00 | 0.00 | 70 | 1018.2 |
| 20260502054917 | 37 | 60 | 1.0 | 2.0 | 0.00 | 0.00 | 0.00 | 69 | 1018.2 |
| 20260502054414 | 38 | 50 | 1.0 | 2.0 | 0.00 | 0.00 | 0.00 | 69 | 1018.5 |
| 20260502053911 | 37 | 64 | 1.0 | 2.0 | 0.00 | 0.00 | 0.00 | 70 | 1018.5 |
| 20260502053408 | 37 | 72 | 1.0 | 2.0 | 0.00 | 0.00 | 0.00 | 71 | 1018.1 |
| 20260502052906 | 38 | 49 | 1.0 | 2.0 | 0.00 | 0.00 | 0.00 | 70 | 1018.5 |
| 20260502052404 | 38 | 38 | 1.0 | 2.0 | 0.00 | 0.00 | 0.00 | 68 | 1018.5 |
| 20260502051901 | 38 | 59 | 1.0 | 1.0 | 0.00 | 0.00 | 0.00 | 70 | 1018.4 |
| 20260502051400 | 38 | 49 | 1.0 | 2.0 | 0.00 | 0.00 | 0.00 | 71 | 1018.5 |
| 20260502050856 | 37 | 63 | 1.0 | 2.0 | 0.00 | 0.00 | 0.00 | 68 | 1018.4 |
| 20260502050353 | 37 | 70 | 0.0 | 2.0 | 0.00 | 0.00 | 0.00 | 71 | 1018.4 |
| 20260502045849 | 37 | 71 | 1.0 | 1.0 | 0.00 | 0.00 | 0.00 | 70 | 1018.5 |
| 20260502045346 | 37 | 68 | 1.0 | 2.0 | 0.00 | 0.00 | 0.00 | 70 | 1018.0 |
| 20260502044843 | 37 | 61 | 1.0 | 2.0 | 0.00 | 0.00 | 0.00 | 74 | 1018.4 |
| 20260502044339 | 37 | 56 | 1.0 | 2.0 | 0.00 | 0.00 | 0.00 | 69 | 1018.4 |
| 20260502043837 | 37 | 69 | 1.0 | 2.0 | 0.00 | 0.00 | 0.00 | 70 | 1018.4 |
| 20260502043334 | 38 | 55 | 1.0 | 2.0 | 0.00 | 0.00 | 0.00 | 73 | 1018.2 |
| 20260502042828 | 38 | 55 | 2.0 | 2.0 | 0.00 | 0.00 | 0.00 | 70 | 1018.4 |
| 20260502042326 | 38 | 55 | 1.0 | 2.0 | 0.00 | 0.00 | 0.00 | 68 | 1018.5 |
| 20260502041823 | 38 | 56 | 1.0 | 2.0 | 0.00 | 0.00 | 0.00 | 70 | 1018.2 |
| 20260502041321 | 38 | 64 | 0.0 | 2.0 | 0.00 | 0.00 | 0.00 | 71 | 1018.2 |
| 20260502040818 | 38 | 53 | 1.0 | 2.0 | 0.00 | 0.00 | 0.00 | 71 | 1018.4 |
| 20260502040315 | 38 | 72 | 1.0 | 2.0 | 0.00 | 0.00 | 0.00 | 69 | 1018.2 |
| 20260502035811 | 38 | 70 | 1.0 | 2.0 | 0.00 | 0.00 | 0.00 | 69 | 1018.4 |
| 20260502035308 | 39 | 56 | 2.0 | 2.0 | 0.00 | 0.00 | 0.00 | 71 | 1018.5 |
| 20260502034805 | 39 | 39 | 1.0 | 2.0 | 0.00 | 0.00 | 0.00 | 68 | 1018.2 |
| 20260502034303 | 39 | 59 | 1.0 | 2.0 | 0.00 | 0.00 | 0.00 | 67 | 1018.4 |
| 20260502033801 | 39 | 66 | 2.0 | 2.0 | 0.00 | 0.00 | 0.00 | 67 | 1018.4 |
| 20260502033258 | 39 | 64 | 1.0 | 2.0 | 0.00 | 0.00 | 0.00 | 62 | 1018.6 |
| 20260502032755 | 39 | 54 | 1.0 | 2.0 | 0.00 | 0.00 | 0.00 | 63 | 1018.6 |
| 20260502032251 | 40 | 62 | 2.0 | 2.0 | 0.00 | 0.00 | 0.00 | 64 | 1018.2 |
| 20260502031749 | 40 | 56 | 2.0 | 2.0 | 0.00 | 0.00 | 0.00 | 61 | 1018.5 |
| 20260502031247 | 41 | 54 | 0.0 | 2.0 | 0.00 | 0.00 | 0.00 | 65 | 1018.5 |
| 20260502030745 | 41 | 46 | 1.0 | 2.0 | 0.00 | 0.00 | 0.00 | 57 | 1018.4 |
| 20260502030243 | 41 | 47 | 2.0 | 2.0 | 0.00 | 0.00 | 0.00 | 59 | 1018.5 |
| 20260502025740 | 41 | 59 | 1.0 | 2.0 | 0.00 | 0.00 | 0.00 | 59 | 1018.4 |
| 20260502025237 | 41 | 48 | 2.0 | 2.0 | 0.00 | 0.00 | 0.00 | 55 | 1018.4 |
| 20260502024735 | 41 | 36 | 2.0 | 2.0 | 0.00 | 0.00 | 0.00 | 62 | 1018.4 |
| 20260502024232 | 42 | 62 | 1.0 | 2.0 | 0.00 | 0.00 | 0.00 | 57 | 1018.4 |
| 20260502023730 | 42 | 43 | 2.0 | 2.0 | 0.00 | 0.00 | 0.00 | 53 | 1018.6 |
| 20260502023227 | 42 | 46 | 1.0 | 2.0 | 0.00 | 0.00 | 0.00 | 53 | 1018.4 |
| 20260502022725 | 42 | 48 | 2.0 | 2.0 | 0.00 | 0.00 | 0.00 | 53 | 1018.6 |
| 20260502022221 | 43 | 47 | 1.0 | 2.0 | 0.00 | 0.00 | 0.00 | 55 | 1018.2 |
| 20260502021719 | 43 | 47 | 1.0 | 2.0 | 0.00 | 0.00 | 0.00 | 50 | 1018.5 |
| 20260502021216 | 44 | 58 | 2.0 | 2.0 | 0.00 | 0.00 | 0.00 | 51 | 1018.2 |
| 20260502020713 | 44 | 61 | 2.0 | 2.0 | 0.00 | 0.00 | 0.00 | 48 | 1018.2 |
| 20260502020210 | 44 | 54 | 1.0 | 2.0 | 0.00 | 0.00 | 0.00 | 46 | 1018.2 |
| 20260502015709 | 45 | 42 | 2.0 | 2.0 | 0.00 | 0.00 | 0.00 | 47 | 1018.2 |
| 20260502015204 | 45 | 37 | 1.0 | 2.0 | 0.00 | 0.00 | 0.00 | 44 | 1018.0 |
| 20260502014702 | 45 | 50 | 2.0 | 2.0 | 0.00 | 0.00 | 0.00 | 43 | 1017.8 |
| 20260502014159 | 46 | 39 | 0.0 | 2.0 | 0.00 | 0.00 | 0.00 | 45 | 1017.9 |
| 20260502013655 | 46 | 54 | 1.0 | 2.0 | 0.00 | 0.00 | 0.00 | 41 | 1017.8 |
| 20260502013150 | 46 | 48 | 2.0 | 2.0 | 0.00 | 0.00 | 0.00 | 42 | 1017.8 |
| 20260502012648 | 47 | 68 | 1.0 | 2.0 | 0.00 | 0.00 | 0.00 | 40 | 1017.6 |
| 20260502012146 | 47 | 49 | 2.0 | 2.0 | 0.00 | 0.00 | 0.00 | 42 | 1017.6 |
| 20260502011642 | 48 | 101 | 1.0 | 2.0 | 0.00 | 0.00 | 0.00 | 40 | 1017.6 |
| 20260502011138 | 48 | 63 | 0.0 | 2.0 | 0.00 | 0.00 | 0.00 | 42 | 1017.8 |
| 20260502010635 | 49 | 11 | 0.0 | 2.0 | 0.00 | 0.00 | 0.00 | 39 | 1017.7 |
| 20260502010132 | 49 | 98 | 2.0 | 2.0 | 0.00 | 0.00 | 0.00 | 38 | 1017.7 |
| 20260502005630 | 49 | 56 | 2.0 | 2.0 | 0.00 | 0.00 | 0.00 | 37 | 1017.8 |
| 20260502005127 | 50 | 124 | 2.0 | 2.0 | 0.00 | 0.00 | 0.00 | 35 | 1017.7 |
| 20260502004623 | 50 | 63 | 2.0 | 2.0 | 0.00 | 0.00 | 0.00 | 35 | 1017.7 |
| 20260502004120 | 50 | 98 | 0.0 | 2.0 | 0.00 | 0.00 | 0.00 | 34 | 1017.8 |
| 20260502003618 | 51 | 106 | 1.0 | 2.0 | 0.00 | 0.00 | 0.00 | 39 | 1017.7 |
| 20260502003114 | 51 | 124 | 1.0 | 2.0 | 0.00 | 0.00 | 0.00 | 37 | 1017.8 |
| 20260502002610 | 51 | 57 | 0.0 | 2.0 | 0.00 | 0.00 | 0.00 | 35 | 1017.7 |
| 20260502002108 | 51 | 91 | 0.0 | 3.0 | 0.00 | 0.00 | 0.00 | 35 | 1017.8 |
| 20260502001606 | 51 | 55 | 2.0 | 2.0 | 0.00 | 0.00 | 0.00 | 34 | 1017.8 |
| 20260502001103 | 51 | 24 | 0.0 | 2.0 | 0.00 | 0.00 | 0.00 | 33 | 1017.6 |
| 20260502000601 | 51 | 82 | 1.0 | 2.0 | 0.00 | 0.00 | 0.00 | 36 | 1017.8 |
| 20260502000058 | 51 | 22 | 0.0 | 4.0 | 0.00 | 0.00 | 0.00 | 32 | 1017.7 |
| 20260501235554 | 51 | 21 | 2.0 | 3.0 | 0.00 | 0.00 | 0.00 | 33 | 1017.8 |
| 20260501235050 | 51 | 94 | 1.0 | 2.0 | 0.00 | 0.00 | 0.00 | 34 | 1017.7 |
| 20260501234545 | 51 | 261 | 0.0 | 2.0 | 0.00 | 0.00 | 0.00 | 34 | 1017.7 |
| 20260501234044 | 50 | 26 | 2.0 | 4.0 | 0.00 | 0.00 | 0.00 | 36 | 1017.8 |
| 20260501233541 | 50 | 39 | 2.0 | 3.0 | 0.00 | 0.00 | 0.00 | 37 | 1017.7 |
| 20260501233038 | 51 | 49 | 2.0 | 2.0 | 0.00 | 0.00 | 0.00 | 36 | 1017.9 |
| 20260501232534 | 51 | 60 | 0.0 | 2.0 | 0.00 | 0.00 | 0.00 | 34 | 1017.6 |
| 20260501232032 | 51 | 36 | 2.0 | 4.0 | 0.00 | 0.00 | 0.00 | 34 | 1017.8 |
| 20260501231529 | 51 | 92 | 2.0 | 3.0 | 0.00 | 0.00 | 0.00 | 35 | 1017.7 |
| 20260501231027 | 52 | 35 | 1.0 | 2.0 | 0.00 | 0.00 | 0.00 | 31 | 1017.7 |
| 20260501230526 | 52 | 13 | 2.0 | 3.0 | 0.00 | 0.00 | 0.00 | 31 | 1017.7 |
| 20260501230023 | 52 | 34 | 3.0 | 3.0 | 0.00 | 0.00 | 0.00 | 33 | 1017.8 |
| 20260501225520 | 51 | 123 | 2.0 | 2.0 | 0.00 | 0.00 | 0.00 | 35 | 1017.7 |
| 20260501225016 | 51 | 18 | 1.0 | 2.0 | 0.00 | 0.00 | 0.00 | 35 | 1018.0 |
| 20260501224515 | 51 | 27 | 1.0 | 4.0 | 0.00 | 0.00 | 0.00 | 33 | 1017.9 |
| 20260501224012 | 52 | 43 | 4.0 | 4.0 | 0.00 | 0.00 | 0.00 | 35 | 1017.8 |